createdAt,value
2019-04-04T03:00:01.814Z,321.12
2019-04-04T03:06:01.852Z,90.00
2019-04-04T03:12:01.761Z,90.00
2019-04-04T03:18:05.205Z,90.00
2019-04-04T03:24:05.834Z,90.00
2019-04-04T03:30:01.916Z,90.00
2019-04-04T03:36:01.826Z,90.00
2019-04-04T03:42:01.798Z,90.00
2019-04-04T03:48:01.847Z,90.00
2019-04-04T03:54:01.817Z,90.00
2019-04-04T04:00:05.646Z,90.00
2019-04-04T04:06:01.833Z,90.00
2019-04-04T04:12:01.829Z,90.00
2019-04-04T04:18:01.817Z,90.00
2019-04-04T04:24:01.876Z,90.00
2019-04-04T04:30:06.230Z,90.00
2019-04-04T04:36:01.837Z,91.53
2019-04-04T04:42:02.017Z,90.00
2019-04-04T04:48:01.914Z,90.00
2019-04-04T04:54:01.849Z,90.00
2019-04-04T05:00:01.837Z,90.00
2019-04-04T05:06:02.654Z,90.00
2019-04-04T05:12:01.844Z,90.00
2019-04-04T05:18:01.836Z,61.32
2019-04-04T05:24:01.844Z,315.00
2019-04-04T05:30:02.027Z,315.00
2019-04-04T05:36:04.824Z,315.00
2019-04-04T05:42:01.847Z,315.00
2019-04-04T05:48:01.881Z,294.23
2019-04-04T05:54:01.878Z,291.97
2019-04-04T06:00:01.907Z,315.00
2019-04-04T06:06:02.025Z,315.00
2019-04-04T06:12:01.855Z,315.00
2019-04-04T06:18:01.886Z,315.00
2019-04-04T06:24:01.865Z,315.00
2019-04-04T06:30:01.942Z,315.00
2019-04-04T06:36:01.907Z,315.00
2019-04-04T06:42:03.177Z,315.00
2019-04-04T06:48:01.921Z,350.13
2019-04-04T06:54:01.876Z,0.00
2019-04-04T07:00:01.899Z,0.00
2019-04-04T07:06:01.917Z,0.00
2019-04-04T07:12:01.887Z,360.00
2019-04-04T07:18:01.872Z,180.00
2019-04-04T07:24:01.896Z,219.84
2019-04-04T07:30:01.881Z,315.00
2019-04-04T07:36:01.893Z,315.00
2019-04-04T07:42:01.899Z,315.00
2019-04-04T07:48:01.931Z,301.52
2019-04-04T07:54:01.911Z,257.52
2019-04-04T08:00:01.886Z,315.00
2019-04-04T08:06:01.886Z,315.00
2019-04-04T08:12:01.922Z,315.00
2019-04-04T08:18:01.907Z,314.29
2019-04-04T08:24:01.890Z,252.68
2019-04-04T08:30:01.900Z,332.22
2019-04-04T08:36:06.267Z,315.00
2019-04-04T08:42:01.892Z,321.82
2019-04-04T08:48:01.945Z,272.13
2019-04-04T08:54:01.909Z,233.24
2019-04-04T09:00:01.939Z,343.27
2019-04-04T09:06:01.911Z,315.00
2019-04-04T09:12:01.909Z,315.00
2019-04-04T09:18:02.155Z,310.55
2019-04-04T09:24:01.929Z,304.50
2019-04-04T09:30:01.988Z,237.74
2019-04-04T09:36:01.953Z,225.00
2019-04-04T09:42:02.004Z,248.57
2019-04-04T09:48:06.704Z,245.37
2019-04-04T09:54:02.002Z,294.48
2019-04-04T10:00:01.968Z,315.00
2019-04-04T10:06:01.955Z,330.76
2019-04-04T10:12:01.946Z,0.00
2019-04-04T10:18:02.505Z,359.16
2019-04-04T10:24:02.209Z,253.29
2019-04-04T10:30:02.881Z,336.23
2019-04-04T10:36:20.391Z,315.00
